createdAt,value
2019-01-23T00:00:33.641Z,87.57
2019-01-23T00:03:02.723Z,87.24
2019-01-23T00:05:31.836Z,87.74
2019-01-23T00:08:00.932Z,87.96
2019-01-23T00:10:30.036Z,87.87
2019-01-23T00:12:59.125Z,87.76
2019-01-23T00:15:28.240Z,88.23
2019-01-23T00:17:57.329Z,88.06
2019-01-23T00:20:26.444Z,88.70
2019-01-23T00:22:55.540Z,89.45
2019-01-23T00:25:24.644Z,89.01
2019-01-23T00:27:53.731Z,88.63
2019-01-23T00:30:22.845Z,89.17
2019-01-23T00:32:51.927Z,88.66
2019-01-23T00:35:21.040Z,89.00
2019-01-23T00:37:50.127Z,89.00
2019-01-23T00:40:19.238Z,88.89
2019-01-23T00:42:48.327Z,89.39
2019-01-23T00:45:17.452Z,89.45
2019-01-23T00:47:46.540Z,89.10
2019-01-23T00:50:15.734Z,89.63
2019-01-23T00:52:44.844Z,89.68
2019-01-23T00:55:14.656Z,89.62
2019-01-23T00:57:43.773Z,89.24
2019-01-23T01:00:16.412Z,89.74
2019-01-23T01:02:45.554Z,89.72
2019-01-23T01:05:15.474Z,89.52
2019-01-23T01:07:44.601Z,89.40
2019-01-23T01:10:14.284Z,89.18
2019-01-23T01:12:43.388Z,89.49
2019-01-23T01:15:13.554Z,89.66
2019-01-23T01:17:42.811Z,89.79
2019-01-23T01:20:12.405Z,89.91
2019-01-23T01:22:41.516Z,89.72
2019-01-23T01:25:12.461Z,89.88
2019-01-23T01:27:41.581Z,89.54
2019-01-23T01:30:28.628Z,90.34
2019-01-23T01:32:57.729Z,90.15
2019-01-23T01:35:26.824Z,90.06
2019-01-23T01:37:56.189Z,90.00
2019-01-23T01:40:25.276Z,90.03
2019-01-23T01:42:54.380Z,90.10
2019-01-23T01:45:23.465Z,89.84
2019-01-23T01:47:52.572Z,90.49
2019-01-23T01:50:21.909Z,90.14
2019-01-23T01:52:51.030Z,90.03
2019-01-23T01:55:20.143Z,90.10
2019-01-23T01:57:50.905Z,90.56
2019-01-23T02:00:21.673Z,90.78
2019-01-23T02:02:50.788Z,90.60
2019-01-23T02:05:19.993Z,90.31
2019-01-23T02:07:49.245Z,90.95
2019-01-23T02:10:19.854Z,90.92
2019-01-23T02:12:49.230Z,90.56
2019-01-23T02:15:19.020Z,90.76
2019-01-23T02:17:48.207Z,91.09
2019-01-23T02:20:19.444Z,91.25
2019-01-23T02:22:48.576Z,91.37
2019-01-23T02:25:18.147Z,91.16
2019-01-23T02:27:47.740Z,91.51
2019-01-23T02:30:18.625Z,90.81
2019-01-23T02:32:47.735Z,91.08
2019-01-23T02:35:16.929Z,91.05
2019-01-23T02:37:46.038Z,90.83
2019-01-23T02:40:19.739Z,91.10
2019-01-23T02:42:48.860Z,91.32
2019-01-23T02:45:18.163Z,91.43
2019-01-23T02:47:47.269Z,91.42
2019-01-23T02:50:17.064Z,90.94
2019-01-23T02:52:46.178Z,91.42
2019-01-23T02:55:15.279Z,91.46
2019-01-23T02:57:44.401Z,91.32
2019-01-23T03:00:15.700Z,91.41
2019-01-23T03:02:44.912Z,91.53
2019-01-23T03:05:16.003Z,91.21
2019-01-23T03:07:45.342Z,91.75
2019-01-23T03:10:16.289Z,91.53
2019-01-23T03:12:45.516Z,91.68
2019-01-23T03:15:15.307Z,91.53
2019-01-23T03:17:44.415Z,91.32
2019-01-23T03:20:15.544Z,91.91
2019-01-23T03:22:44.662Z,91.58
2019-01-23T03:25:14.018Z,91.36
2019-01-23T03:27:43.136Z,91.31
2019-01-23T03:30:17.585Z,91.89
2019-01-23T03:32:46.677Z,91.83
2019-01-23T03:35:15.760Z,92.18
2019-01-23T03:37:44.848Z,92.23
2019-01-23T03:40:16.313Z,91.95
2019-01-23T03:42:45.413Z,92.26
2019-01-23T03:45:15.115Z,92.36
2019-01-23T03:47:44.303Z,92.44
2019-01-23T03:50:15.537Z,92.26
2019-01-23T03:52:44.630Z,92.52
2019-01-23T03:55:14.520Z,92.63
2019-01-23T03:57:43.622Z,93.03
2019-01-23T04:00:14.894Z,92.44
2019-01-23T04:02:43.984Z,92.87
2019-01-23T04:05:13.200Z,93.17
2019-01-23T04:07:42.308Z,93.63
2019-01-23T04:10:13.173Z,93.65
2019-01-23T04:12:42.340Z,92.82
2019-01-23T04:15:12.581Z,93.36
2019-01-23T04:17:41.664Z,92.99
2019-01-23T04:20:15.520Z,92.68
2019-01-23T04:22:45.676Z,93.21
2019-01-23T04:25:15.126Z,93.06
2019-01-23T04:27:44.225Z,93.09
2019-01-23T04:30:16.088Z,92.59
2019-01-23T04:32:45.187Z,92.99
2019-01-23T04:35:14.289Z,92.46
2019-01-23T04:37:43.377Z,92.56
2019-01-23T04:40:12.851Z,92.34
2019-01-23T04:42:41.935Z,92.17
2019-01-23T04:45:12.010Z,92.54
2019-01-23T04:47:41.108Z,92.26
2019-01-23T04:50:11.329Z,92.54
2019-01-23T04:52:59.393Z,92.69
2019-01-23T04:55:28.538Z,92.57
2019-01-23T04:57:57.620Z,93.07
2019-01-23T05:00:27.896Z,92.88
2019-01-23T05:02:57.016Z,93.09
2019-01-23T05:05:26.088Z,92.90
2019-01-23T05:07:55.189Z,92.75
2019-01-23T05:10:24.295Z,92.68
2019-01-23T05:12:53.383Z,92.72
2019-01-23T05:15:22.597Z,93.06
2019-01-23T05:17:51.677Z,93.15
2019-01-23T05:20:20.812Z,92.97
2019-01-23T05:22:49.913Z,92.97
2019-01-23T05:25:19.018Z,93.19
2019-01-23T05:27:48.125Z,93.16
2019-01-23T05:30:22.538Z,92.38
2019-01-23T05:32:51.673Z,91.92
2019-01-23T05:35:20.804Z,92.13
2019-01-23T05:37:49.891Z,92.55
2019-01-23T05:40:19.002Z,92.43
2019-01-23T05:42:48.090Z,92.51
2019-01-23T05:45:17.206Z,92.63
2019-01-23T05:47:46.294Z,92.20
2019-01-23T05:50:16.176Z,92.34
2019-01-23T05:52:45.367Z,92.60
2019-01-23T05:55:14.592Z,92.68
2019-01-23T05:57:43.707Z,92.71
2019-01-23T06:00:15.356Z,92.48
2019-01-23T06:02:44.464Z,92.52
2019-01-23T06:05:13.978Z,92.25
2019-01-23T06:07:43.088Z,92.50
2019-01-23T06:10:12.195Z,92.63
2019-01-23T06:12:41.319Z,92.50
2019-01-23T06:15:10.889Z,92.89
2019-01-23T06:17:40.009Z,92.54
2019-01-23T06:20:11.191Z,92.55
2019-01-23T06:22:40.301Z,92.86
2019-01-23T06:25:09.420Z,92.82
2019-01-23T06:27:38.531Z,92.96
2019-01-23T06:30:14.017Z,92.70
2019-01-23T06:32:43.173Z,92.69
2019-01-23T06:35:12.466Z,92.70
2019-01-23T06:37:41.577Z,92.84
2019-01-23T06:40:11.774Z,92.69
2019-01-23T06:42:40.895Z,92.89
2019-01-23T06:45:11.836Z,93.11
2019-01-23T06:47:40.944Z,93.26
2019-01-23T06:50:12.974Z,93.54
2019-01-23T06:52:42.090Z,93.52
2019-01-23T06:55:11.313Z,93.35
2019-01-23T06:57:40.429Z,93.39
2019-01-23T07:00:17.109Z,93.77
2019-01-23T07:02:43.871Z,93.91
2019-01-23T07:05:13.272Z,93.87
2019-01-23T07:07:42.380Z,93.73
2019-01-23T07:10:14.702Z,94.08
2019-01-23T07:12:43.813Z,93.61
2019-01-23T07:15:12.908Z,93.99
2019-01-23T07:17:42.022Z,93.66
2019-01-23T07:20:14.800Z,94.04
2019-01-23T07:22:43.933Z,93.61
2019-01-23T07:25:13.517Z,93.25
2019-01-23T07:27:42.621Z,93.33
2019-01-23T07:30:24.207Z,93.17
2019-01-23T07:32:49.096Z,93.46
2019-01-23T07:35:18.205Z,92.94
2019-01-23T07:37:47.314Z,92.51
2019-01-23T07:40:16.393Z,92.30
2019-01-23T07:42:45.497Z,92.37
2019-01-23T07:45:15.685Z,92.24
2019-01-23T07:47:44.797Z,92.12
2019-01-23T07:50:14.589Z,92.20
2019-01-23T07:52:44.600Z,92.07
2019-01-23T07:55:15.129Z,91.64
2019-01-23T07:57:44.242Z,91.30
2019-01-23T08:00:15.900Z,91.37
2019-01-23T08:02:45.226Z,91.14
2019-01-23T08:05:19.362Z,90.91
2019-01-23T08:07:46.201Z,90.68
2019-01-23T08:10:16.219Z,91.12
2019-01-23T08:12:45.321Z,90.19
2019-01-23T08:15:20.327Z,89.78
2019-01-23T08:17:49.567Z,89.32
2019-01-23T08:20:19.392Z,89.00
2019-01-23T08:22:48.504Z,88.59
2019-01-23T08:25:17.584Z,88.33
2019-01-23T08:27:46.700Z,88.44
2019-01-23T08:30:16.886Z,87.78
2019-01-23T08:32:45.987Z,87.52
2019-01-23T08:35:15.516Z,87.17
2019-01-23T08:37:44.613Z,86.51
2019-01-23T08:40:14.733Z,85.50
2019-01-23T08:42:43.844Z,85.61
2019-01-23T08:45:13.754Z,85.83
2019-01-23T08:47:42.838Z,85.75
2019-01-23T08:50:18.544Z,86.51
2019-01-23T08:52:47.640Z,85.24
2019-01-23T08:55:16.799Z,84.14
2019-01-23T08:57:45.884Z,83.32
2019-01-23T09:00:15.259Z,82.30
2019-01-23T09:02:44.345Z,82.33
2019-01-23T09:05:13.617Z,81.88
2019-01-23T09:07:42.723Z,80.03
2019-01-23T09:10:14.752Z,78.57
2019-01-23T09:12:43.851Z,79.72
2019-01-23T09:15:13.245Z,79.77
2019-01-23T09:17:42.333Z,78.85
2019-01-23T09:20:12.212Z,79.40
2019-01-23T09:22:41.305Z,80.27
2019-01-23T09:25:12.074Z,80.42
2019-01-23T09:27:41.155Z,79.10
2019-01-23T09:30:16.579Z,80.43
2019-01-23T09:33:21.750Z,79.47
2019-01-23T09:36:31.613Z,79.18
2019-01-23T09:39:40.113Z,76.44
2019-01-23T09:42:42.638Z,76.43
2019-01-23T09:45:58.961Z,75.23
2019-01-23T09:49:02.712Z,76.09
2019-01-23T09:52:24.868Z,76.44
2019-01-23T09:54:54.002Z,76.63
2019-01-23T09:57:23.113Z,76.86
2019-01-23T09:59:52.220Z,77.28
2019-01-23T10:02:21.300Z,76.95
2019-01-23T10:04:50.425Z,78.11
2019-01-23T10:07:19.508Z,76.98
2019-01-23T10:09:48.627Z,78.88
2019-01-23T10:12:17.721Z,79.96
2019-01-23T10:14:46.805Z,79.50
2019-01-23T10:17:15.908Z,77.42
2019-01-23T10:19:45.002Z,76.20
2019-01-23T10:22:14.108Z,75.76
2019-01-23T10:24:43.196Z,74.71
2019-01-23T10:27:12.315Z,73.48
2019-01-23T10:29:41.402Z,73.29
2019-01-23T10:32:10.505Z,73.65
2019-01-23T10:34:39.597Z,74.96
2019-01-23T10:37:08.732Z,74.93
2019-01-23T10:39:37.815Z,74.72
2019-01-23T10:42:07.128Z,76.07
2019-01-23T10:44:36.246Z,74.66
2019-01-23T10:47:05.336Z,75.82
2019-01-23T10:49:34.428Z,76.32
2019-01-23T10:52:03.544Z,76.63
2019-01-23T10:54:32.656Z,76.41
2019-01-23T10:57:01.872Z,76.04
2019-01-23T10:59:31.011Z,77.41
2019-01-23T11:02:00.140Z,78.57
2019-01-23T11:04:29.233Z,78.73
2019-01-23T11:06:58.369Z,79.07
2019-01-23T11:09:27.600Z,78.74
2019-01-23T11:11:56.688Z,76.62
2019-01-23T11:14:25.802Z,77.42
2019-01-23T11:16:54.895Z,78.15
2019-01-23T11:19:24.040Z,77.86
2019-01-23T11:21:53.121Z,77.20
2019-01-23T11:24:22.224Z,78.23
2019-01-23T11:26:51.312Z,76.60
2019-01-23T11:29:20.421Z,75.01
2019-01-23T11:31:49.513Z,77.18
2019-01-23T11:34:18.625Z,75.80
2019-01-23T11:36:47.717Z,77.17
2019-01-23T11:39:16.828Z,74.89
2019-01-23T11:41:45.917Z,74.10
2019-01-23T11:44:15.030Z,73.33
2019-01-23T11:46:44.124Z,73.01
2019-01-23T11:49:13.257Z,71.64
2019-01-23T11:51:42.357Z,72.61
2019-01-23T11:54:11.464Z,73.84
2019-01-23T11:56:40.596Z,76.52
2019-01-23T11:59:09.708Z,76.32
2019-01-23T12:01:38.796Z,76.31
2019-01-23T12:04:07.923Z,74.70
2019-01-23T12:06:37.009Z,75.93
2019-01-23T12:09:08.844Z,76.41
2019-01-23T12:11:37.937Z,76.63
2019-01-23T12:14:07.043Z,77.41
2019-01-23T12:16:36.144Z,76.88
2019-01-23T12:19:05.356Z,75.46
2019-01-23T12:21:34.447Z,74.84
2019-01-23T12:24:03.565Z,75.66
2019-01-23T12:26:32.648Z,74.88
2019-01-23T12:29:01.752Z,77.60
2019-01-23T12:31:34.874Z,75.79
2019-01-23T12:34:01.677Z,75.42
2019-01-23T12:36:30.765Z,75.40
2019-01-23T12:38:59.853Z,73.75
2019-01-23T12:41:28.966Z,72.93
2019-01-23T12:43:58.054Z,72.51
2019-01-23T12:46:27.168Z,74.46
2019-01-23T12:48:56.252Z,74.98
2019-01-23T12:51:25.361Z,73.28
2019-01-23T12:53:54.449Z,75.37
2019-01-23T12:56:23.587Z,74.62
2019-01-23T12:58:52.659Z,74.75
2019-01-23T13:01:21.771Z,74.25
2019-01-23T13:03:50.848Z,74.56
2019-01-23T13:06:19.973Z,74.22
2019-01-23T13:08:49.064Z,74.21
2019-01-23T13:11:18.176Z,75.94
2019-01-23T13:13:47.291Z,77.44
2019-01-23T13:16:16.409Z,76.30
2019-01-23T13:18:45.504Z,76.17
2019-01-23T13:21:14.613Z,75.45
2019-01-23T13:23:43.705Z,77.65
2019-01-23T13:26:12.812Z,77.93
2019-01-23T13:28:41.904Z,78.31
2019-01-23T13:31:11.011Z,77.69
2019-01-23T13:33:40.104Z,78.39
2019-01-23T13:36:09.966Z,78.36
2019-01-23T13:38:39.072Z,76.84
2019-01-23T13:41:08.182Z,78.27
2019-01-23T13:43:37.263Z,76.75
2019-01-23T13:46:06.385Z,76.88
2019-01-23T13:48:35.477Z,75.44
2019-01-23T13:51:04.688Z,77.76
2019-01-23T13:53:33.773Z,78.60
2019-01-23T13:56:02.903Z,77.72
2019-01-23T13:58:31.989Z,78.32
2019-01-23T14:01:01.120Z,80.19
2019-01-23T14:03:30.213Z,78.74
2019-01-23T14:05:59.329Z,77.71
2019-01-23T14:08:28.666Z,77.59
2019-01-23T14:10:57.830Z,78.49
2019-01-23T14:13:26.926Z,78.52
2019-01-23T14:15:56.040Z,78.89
2019-01-23T14:18:25.125Z,77.95
2019-01-23T14:20:54.240Z,77.98
2019-01-23T14:23:23.323Z,76.82
2019-01-23T14:25:52.429Z,77.54
2019-01-23T14:28:21.530Z,77.41
2019-01-23T14:30:50.644Z,78.79
2019-01-23T14:33:19.736Z,78.95
2019-01-23T14:35:48.901Z,78.33
2019-01-23T14:38:18.020Z,78.23
2019-01-23T14:40:47.114Z,80.39
2019-01-23T14:43:16.625Z,80.00
2019-01-23T14:45:45.724Z,80.16
2019-01-23T14:48:14.857Z,80.45
2019-01-23T14:50:43.948Z,81.38
2019-01-23T14:53:14.236Z,81.32
2019-01-23T14:55:43.540Z,80.54
2019-01-23T14:58:12.753Z,80.84
2019-01-23T15:00:41.859Z,81.49
2019-01-23T15:03:10.965Z,80.91
2019-01-23T15:05:40.057Z,80.84
2019-01-23T15:08:09.167Z,81.88
2019-01-23T15:10:38.249Z,80.26
2019-01-23T15:13:07.362Z,81.54
2019-01-23T15:15:36.457Z,81.73
2019-01-23T15:18:05.805Z,81.98
2019-01-23T15:20:37.148Z,81.70
2019-01-23T15:23:06.354Z,81.99
2019-01-23T15:25:35.452Z,81.63
2019-01-23T15:28:04.890Z,81.44
2019-01-23T15:30:34.080Z,83.33
2019-01-23T15:33:03.192Z,83.30
2019-01-23T15:35:32.289Z,83.86
2019-01-23T15:38:01.405Z,83.40
2019-01-23T15:40:32.922Z,83.16
2019-01-23T15:43:02.041Z,83.81
2019-01-23T15:45:31.119Z,83.33
2019-01-23T15:48:00.228Z,83.28
2019-01-23T15:50:29.726Z,84.73
2019-01-23T15:52:58.833Z,83.50
2019-01-23T15:55:27.968Z,83.89
2019-01-23T15:57:57.086Z,83.81
2019-01-23T16:00:31.293Z,84.01
2019-01-23T16:03:00.395Z,83.25
2019-01-23T16:05:29.486Z,83.92
2019-01-23T16:07:58.801Z,85.07
2019-01-23T16:10:29.187Z,84.73
2019-01-23T16:12:58.317Z,85.70
2019-01-23T16:15:28.474Z,85.88
2019-01-23T16:17:57.746Z,85.94
2019-01-23T16:20:27.047Z,85.69
2019-01-23T16:22:56.298Z,85.49
2019-01-23T16:25:25.396Z,86.12
2019-01-23T16:27:54.512Z,86.34
2019-01-23T16:30:33.155Z,86.19
2019-01-23T16:33:02.268Z,86.77
2019-01-23T16:35:38.305Z,86.28
2019-01-23T16:38:02.383Z,86.10
2019-01-23T16:40:31.477Z,86.87
2019-01-23T16:43:00.590Z,87.50
2019-01-23T16:45:29.718Z,86.95
2019-01-23T16:47:58.785Z,86.30
2019-01-23T16:50:27.999Z,86.48
2019-01-23T16:52:57.086Z,86.46
2019-01-23T16:55:26.224Z,86.89
2019-01-23T16:57:55.827Z,86.76
2019-01-23T17:00:25.761Z,87.13
2019-01-23T17:02:54.851Z,87.43
2019-01-23T17:05:26.844Z,86.61
2019-01-23T17:07:57.053Z,86.29
2019-01-23T17:10:26.602Z,86.06
2019-01-23T17:12:55.700Z,87.23
2019-01-23T17:15:24.816Z,87.13
2019-01-23T17:17:53.917Z,86.77
2019-01-23T17:20:27.414Z,86.38
2019-01-23T17:22:56.510Z,86.23
2019-01-23T17:25:25.618Z,87.05
2019-01-23T17:27:54.718Z,87.95
2019-01-23T17:30:23.585Z,87.28
2019-01-23T17:32:52.808Z,87.46
2019-01-23T17:35:22.044Z,87.31
2019-01-23T17:37:51.145Z,87.15
2019-01-23T17:40:20.560Z,87.35
2019-01-23T17:42:49.690Z,86.28
2019-01-23T17:45:29.760Z,86.69
2019-01-23T17:47:59.246Z,86.29
2019-01-23T17:50:28.348Z,86.28
2019-01-23T17:52:57.471Z,85.79
2019-01-23T17:55:29.011Z,86.24
2019-01-23T17:57:58.413Z,86.12
2019-01-23T18:00:29.396Z,86.31
2019-01-23T18:02:58.512Z,85.81
2019-01-23T18:05:27.617Z,85.23
2019-01-23T18:07:56.741Z,85.10
2019-01-23T18:10:25.854Z,85.19
2019-01-23T18:12:54.986Z,85.55
2019-01-23T18:15:24.931Z,85.72
2019-01-23T18:17:54.149Z,85.64
2019-01-23T18:20:27.913Z,86.18
2019-01-23T18:22:57.370Z,86.79
2019-01-23T18:25:26.671Z,87.23
2019-01-23T18:27:55.778Z,86.26
2019-01-23T18:30:31.152Z,86.39
2019-01-23T18:33:01.208Z,86.64
2019-01-23T18:36:02.107Z,85.98
2019-01-23T18:38:41.674Z,85.73
2019-01-23T18:41:50.901Z,85.57
2019-01-23T18:44:53.990Z,85.22
2019-01-23T18:47:59.619Z,85.16
2019-01-23T18:50:53.047Z,85.08
2019-01-23T18:53:22.186Z,85.64
2019-01-23T18:55:51.320Z,85.44
2019-01-23T18:58:20.424Z,85.60
2019-01-23T19:00:49.508Z,84.17
2019-01-23T19:03:18.628Z,84.83
2019-01-23T19:05:47.753Z,84.65
2019-01-23T19:08:18.146Z,84.74
2019-01-23T19:10:47.370Z,84.42
2019-01-23T19:13:16.497Z,84.47
2019-01-23T19:15:45.701Z,85.46
2019-01-23T19:18:14.792Z,84.51
2019-01-23T19:20:43.913Z,84.58
2019-01-23T19:23:12.996Z,84.51
2019-01-23T19:25:42.127Z,84.67
2019-01-23T19:28:11.229Z,84.63
2019-01-23T19:30:40.350Z,85.30
2019-01-23T19:33:13.499Z,85.61
2019-01-23T19:35:40.304Z,86.10
2019-01-23T19:38:09.390Z,85.42
2019-01-23T19:40:38.512Z,85.06
2019-01-23T19:43:07.635Z,85.24
2019-01-23T19:45:36.749Z,85.95
2019-01-23T19:48:05.915Z,86.13
2019-01-23T19:50:35.030Z,84.86
2019-01-23T19:53:04.325Z,85.76
2019-01-23T19:55:33.429Z,86.29
2019-01-23T19:58:04.465Z,86.19
2019-01-23T20:00:34.205Z,86.25
2019-01-23T20:03:03.311Z,85.80
2019-01-23T20:05:34.531Z,85.82
2019-01-23T20:08:03.802Z,86.74
2019-01-23T20:10:32.889Z,85.54
2019-01-23T20:13:02.023Z,85.92
2019-01-23T20:15:31.889Z,86.87
2019-01-23T20:18:09.415Z,86.88
2019-01-23T20:20:38.561Z,87.09
2019-01-23T20:23:07.686Z,86.91
2019-01-23T20:25:36.792Z,86.37
2019-01-23T20:28:09.134Z,85.37
2019-01-23T20:30:40.615Z,84.80
2019-01-23T20:33:10.236Z,85.57
2019-01-23T20:35:39.349Z,86.04
2019-01-23T20:38:08.482Z,86.67
2019-01-23T20:40:37.582Z,86.32
2019-01-23T20:43:07.417Z,85.94
2019-01-23T20:45:36.518Z,86.53
2019-01-23T20:48:07.485Z,85.53
2019-01-23T20:50:36.578Z,85.51
2019-01-23T20:53:05.838Z,86.39
2019-01-23T20:55:34.958Z,85.74
2019-01-23T20:58:04.190Z,84.13
2019-01-23T21:00:33.792Z,85.70
2019-01-23T21:03:03.120Z,85.26
2019-01-23T21:05:32.304Z,85.75
2019-01-23T21:08:01.425Z,85.37
2019-01-23T21:10:30.531Z,85.53
2019-01-23T21:12:59.647Z,85.76
2019-01-23T21:15:32.676Z,84.54
2019-01-23T21:18:02.567Z,85.13
2019-01-23T21:20:34.203Z,85.17
2019-01-23T21:23:03.304Z,84.24
2019-01-23T21:25:32.397Z,85.33
2019-01-23T21:28:01.532Z,85.56
2019-01-23T21:30:30.632Z,86.10
2019-01-23T21:32:59.825Z,85.43
2019-01-23T21:35:28.918Z,84.99
2019-01-23T21:37:58.033Z,85.73
2019-01-23T21:40:29.740Z,85.54
2019-01-23T21:42:58.858Z,86.35
2019-01-23T21:45:28.283Z,86.76
2019-01-23T21:47:57.386Z,86.78
2019-01-23T21:50:26.493Z,85.94
2019-01-23T21:52:55.618Z,86.59
2019-01-23T21:55:24.941Z,85.94
2019-01-23T21:57:54.117Z,85.85
2019-01-23T22:00:38.011Z,86.08
2019-01-23T22:03:07.992Z,86.02
2019-01-23T22:05:37.177Z,85.90
2019-01-23T22:08:08.094Z,85.63
2019-01-23T22:10:37.212Z,85.86
2019-01-23T22:13:06.763Z,86.16
2019-01-23T22:15:35.870Z,86.84
2019-01-23T22:18:06.087Z,86.68
2019-01-23T22:20:35.222Z,86.38
2019-01-23T22:23:04.447Z,86.28
2019-01-23T22:25:33.609Z,87.03
2019-01-23T22:28:02.690Z,86.08
2019-01-23T22:30:32.509Z,86.59
2019-01-23T22:33:01.549Z,85.87
2019-01-23T22:35:30.660Z,85.79
2019-01-23T22:37:59.752Z,85.95
2019-01-23T22:40:28.866Z,86.78
2019-01-23T22:42:57.952Z,86.25
2019-01-23T22:45:27.061Z,86.13
2019-01-23T22:47:56.137Z,85.56
2019-01-23T22:50:26.946Z,86.47
2019-01-23T22:52:56.024Z,86.36
2019-01-23T22:55:25.140Z,86.24
2019-01-23T22:57:54.249Z,85.99
2019-01-23T23:01:19.425Z,86.20
2019-01-23T23:03:48.522Z,86.32
2019-01-23T23:06:17.626Z,86.61
2019-01-23T23:08:46.713Z,86.73
2019-01-23T23:11:15.821Z,85.47
2019-01-23T23:13:44.909Z,86.27
2019-01-23T23:16:14.011Z,86.98
2019-01-23T23:18:43.093Z,86.11
2019-01-23T23:21:12.196Z,85.73
2019-01-23T23:23:41.285Z,86.51
2019-01-23T23:26:10.370Z,86.38
2019-01-23T23:28:39.476Z,86.29
2019-01-23T23:31:08.560Z,86.14
2019-01-23T23:33:37.677Z,85.60
2019-01-23T23:36:06.766Z,86.23
2019-01-23T23:38:35.875Z,85.78
2019-01-23T23:41:04.967Z,86.51
2019-01-23T23:43:34.085Z,86.94
2019-01-23T23:46:03.196Z,86.37
2019-01-23T23:48:32.312Z,85.63
2019-01-23T23:51:01.404Z,85.17
2019-01-23T23:53:30.517Z,85.65
2019-01-23T23:55:59.607Z,86.21
2019-01-23T23:58:28.744Z,86.18
